createdAt,value
2023-05-14T00:00:38.336Z,34.28
2023-05-14T00:02:40.075Z,34.13
2023-05-14T00:04:41.780Z,33.70
2023-05-14T00:06:43.434Z,34.12
2023-05-14T00:08:45.213Z,33.81
2023-05-14T00:10:46.978Z,34.06
2023-05-14T00:12:48.729Z,33.83
2023-05-14T00:14:50.424Z,33.94
2023-05-14T00:16:52.052Z,33.71
2023-05-14T00:18:53.737Z,34.09
2023-05-14T00:20:55.391Z,33.75
2023-05-14T00:22:56.990Z,33.96
2023-05-14T00:24:58.742Z,34.08
2023-05-14T00:27:00.446Z,33.77
2023-05-14T00:29:02.034Z,33.96
2023-05-14T00:31:03.917Z,34.06
2023-05-14T00:33:06.360Z,34.00
2023-05-14T00:35:08.547Z,33.66
2023-05-14T00:37:10.291Z,33.94
2023-05-14T00:39:12.481Z,33.69
2023-05-14T00:41:14.189Z,34.04
2023-05-14T00:43:15.900Z,33.78
2023-05-14T00:45:17.574Z,33.55
2023-05-14T00:47:19.415Z,33.54
2023-05-14T00:49:21.383Z,33.62
2023-05-14T00:51:23.133Z,33.88
2023-05-14T00:53:24.762Z,33.93
2023-05-14T00:55:26.629Z,33.89
2023-05-14T00:57:28.519Z,33.91
2023-05-14T00:59:30.229Z,33.59
2023-05-14T01:01:32.098Z,33.73
2023-05-14T01:03:34.341Z,33.48
2023-05-14T01:06:07.074Z,33.45
2023-05-14T01:08:34.133Z,33.67
2023-05-14T01:11:26.370Z,33.72
2023-05-14T01:13:36.286Z,33.37
2023-05-14T01:15:39.882Z,33.50
2023-05-14T01:17:54.417Z,33.76
2023-05-14T01:19:56.723Z,33.35
2023-05-14T01:21:58.253Z,33.55
2023-05-14T01:23:59.944Z,33.40
2023-05-14T01:26:01.659Z,32.95
2023-05-14T01:28:29.660Z,33.38
2023-05-14T01:30:43.093Z,33.22
2023-05-14T01:32:47.641Z,33.34
2023-05-14T01:34:50.591Z,33.45
2023-05-14T01:36:53.554Z,33.75
2023-05-14T01:38:55.477Z,33.53
2023-05-14T01:40:57.569Z,33.27
2023-05-14T01:42:59.313Z,33.63
2023-05-14T01:45:01.074Z,33.56
2023-05-14T01:47:03.479Z,33.45
2023-05-14T01:49:05.173Z,33.29
2023-05-14T01:51:06.827Z,33.53
2023-05-14T01:53:08.490Z,33.33
2023-05-14T01:55:10.793Z,33.13
2023-05-14T01:57:12.487Z,33.42
2023-05-14T01:59:14.167Z,33.47
2023-05-14T02:01:16.208Z,33.33
2023-05-14T02:03:18.031Z,32.78
2023-05-14T02:05:19.783Z,33.02
2023-05-14T02:07:21.475Z,33.23
2023-05-14T02:09:23.167Z,33.09
2023-05-14T02:11:24.800Z,32.98
2023-05-14T02:13:26.810Z,32.96
2023-05-14T02:15:28.400Z,33.27
2023-05-14T02:17:30.113Z,33.21
2023-05-14T02:19:31.697Z,33.43
2023-05-14T02:21:33.280Z,32.95
2023-05-14T02:23:41.447Z,32.91
2023-05-14T02:25:44.482Z,33.17
2023-05-14T02:27:46.127Z,33.14
2023-05-14T02:29:47.950Z,32.81
2023-05-14T02:31:49.650Z,32.76
2023-05-14T02:33:51.394Z,32.76
2023-05-14T02:35:53.201Z,32.92
2023-05-14T02:37:54.844Z,33.35
2023-05-14T02:39:56.425Z,33.22
2023-05-14T02:41:58.058Z,33.07
2023-05-14T02:43:59.724Z,32.82
2023-05-14T02:46:01.429Z,33.02
2023-05-14T02:48:03.136Z,32.81
2023-05-14T02:50:06.433Z,33.09
2023-05-14T02:52:08.017Z,33.21
2023-05-14T02:54:09.635Z,33.15
2023-05-14T02:56:11.297Z,32.97
2023-05-14T02:58:12.829Z,33.00
2023-05-14T03:00:14.631Z,32.97
2023-05-14T03:02:16.539Z,33.08
2023-05-14T03:04:18.674Z,32.97
2023-05-14T03:06:20.394Z,32.94
2023-05-14T03:08:22.022Z,32.83
2023-05-14T03:10:23.838Z,32.88
2023-05-14T03:12:25.690Z,33.19
2023-05-14T03:14:27.284Z,32.82
2023-05-14T03:16:29.090Z,33.07
2023-05-14T03:18:30.772Z,33.00
2023-05-14T03:20:32.377Z,32.58
2023-05-14T03:22:34.081Z,32.85
2023-05-14T03:24:38.685Z,33.09
2023-05-14T03:26:40.330Z,32.72
2023-05-14T03:28:41.841Z,33.13
2023-05-14T03:30:43.530Z,33.20
2023-05-14T03:32:45.394Z,32.74
2023-05-14T03:34:47.053Z,32.77
2023-05-14T03:36:48.785Z,32.87
2023-05-14T03:38:50.407Z,32.83
2023-05-14T03:40:52.090Z,32.62
2023-05-14T03:42:53.978Z,32.80
2023-05-14T03:44:55.547Z,32.93
2023-05-14T03:46:57.241Z,33.06
2023-05-14T03:48:58.880Z,32.88
2023-05-14T03:51:00.541Z,32.87
2023-05-14T03:53:02.466Z,32.91
2023-05-14T03:55:04.261Z,32.74
2023-05-14T03:57:05.913Z,32.60
2023-05-14T03:59:07.498Z,32.84
2023-05-14T04:01:09.134Z,33.06
2023-05-14T04:03:11.100Z,32.75
2023-05-14T04:05:13.085Z,32.70
2023-05-14T04:07:14.644Z,32.89
2023-05-14T04:09:16.291Z,32.71
2023-05-14T04:11:18.132Z,32.66
2023-05-14T04:13:19.755Z,33.08
2023-05-14T04:15:21.444Z,32.68
2023-05-14T04:17:23.132Z,32.80
2023-05-14T04:19:24.916Z,33.10
2023-05-14T04:21:26.494Z,32.69
2023-05-14T04:23:28.441Z,32.96
2023-05-14T04:25:30.451Z,33.24
2023-05-14T04:27:33.414Z,32.68
2023-05-14T04:29:35.142Z,32.73
2023-05-14T04:31:36.816Z,32.69
2023-05-14T04:33:38.577Z,32.83
2023-05-14T04:35:40.185Z,32.88
2023-05-14T04:37:42.055Z,32.63
2023-05-14T04:39:43.735Z,33.10
2023-05-14T04:41:45.492Z,32.87
2023-05-14T04:43:49.290Z,32.99
2023-05-14T04:45:52.342Z,32.60
2023-05-14T04:47:54.154Z,33.07
2023-05-14T04:49:55.898Z,33.01
2023-05-14T04:51:57.455Z,33.01
2023-05-14T04:53:59.148Z,32.52
2023-05-14T04:56:00.870Z,32.70
2023-05-14T04:58:03.312Z,32.68
2023-05-14T05:00:06.047Z,32.62
2023-05-14T05:02:07.727Z,32.50
2023-05-14T05:04:09.322Z,32.69
2023-05-14T05:06:11.232Z,32.64
2023-05-14T05:08:12.917Z,32.57
2023-05-14T05:10:17.395Z,32.56
2023-05-14T05:12:19.194Z,32.63
2023-05-14T05:14:20.850Z,32.96
2023-05-14T05:16:22.801Z,32.66
2023-05-14T05:18:24.488Z,32.56
2023-05-14T05:20:28.050Z,32.45
2023-05-14T05:22:29.643Z,32.75
2023-05-14T05:24:31.274Z,32.55
2023-05-14T05:26:32.882Z,32.56
2023-05-14T05:28:34.724Z,32.44
2023-05-14T05:30:36.470Z,32.78
2023-05-14T05:32:38.206Z,32.69
2023-05-14T05:34:39.815Z,32.66
2023-05-14T05:36:41.450Z,32.71
2023-05-14T05:38:43.001Z,32.62
2023-05-14T05:40:45.093Z,32.54
2023-05-14T05:42:46.785Z,32.74
2023-05-14T05:44:48.451Z,32.89
2023-05-14T05:46:51.067Z,32.52
2023-05-14T05:48:53.301Z,32.29
2023-05-14T05:50:55.333Z,32.46
2023-05-14T05:52:59.093Z,32.75
2023-05-14T05:55:01.060Z,32.15
2023-05-14T05:57:02.687Z,32.77
2023-05-14T05:59:04.422Z,32.59
2023-05-14T06:01:06.532Z,32.51
2023-05-14T06:03:08.145Z,32.42
2023-05-14T06:05:10.463Z,32.71
2023-05-14T06:07:12.356Z,32.83
2023-05-14T06:09:13.934Z,32.97
2023-05-14T06:11:16.822Z,32.65
2023-05-14T06:13:18.477Z,32.82
2023-05-14T06:15:20.134Z,32.77
2023-05-14T06:17:22.025Z,32.57
2023-05-14T06:19:23.577Z,32.90
2023-05-14T06:21:25.352Z,32.82
2023-05-14T06:23:27.055Z,32.57
2023-05-14T06:25:28.630Z,32.36
2023-05-14T06:27:30.346Z,32.82
2023-05-14T06:29:31.843Z,32.52
2023-05-14T06:31:33.795Z,32.47
2023-05-14T06:33:35.547Z,32.58
2023-05-14T06:35:37.183Z,32.86
2023-05-14T06:37:38.725Z,32.83
2023-05-14T06:39:40.533Z,32.51
2023-05-14T06:41:42.116Z,32.65
2023-05-14T06:43:43.967Z,32.52
2023-05-14T06:45:48.976Z,32.36
2023-05-14T06:47:50.743Z,32.55
2023-05-14T06:49:52.444Z,32.71
2023-05-14T06:51:54.205Z,32.88
2023-05-14T06:53:56.251Z,32.77
2023-05-14T06:55:58.017Z,32.84
2023-05-14T06:57:59.726Z,32.42
2023-05-14T07:00:03.159Z,32.32
2023-05-14T07:02:05.439Z,32.32
2023-05-14T07:04:07.203Z,32.35
2023-05-14T07:06:08.846Z,32.62
2023-05-14T07:08:11.162Z,32.45
2023-05-14T07:10:12.792Z,32.07
2023-05-14T07:12:14.409Z,32.51
2023-05-14T07:14:15.998Z,32.57
2023-05-14T07:16:17.551Z,32.54
2023-05-14T07:18:19.261Z,32.43
2023-05-14T07:20:20.906Z,32.26
2023-05-14T07:22:22.510Z,32.77
2023-05-14T07:24:24.198Z,32.62
2023-05-14T07:26:26.347Z,32.34
2023-05-14T07:28:27.890Z,32.60
2023-05-14T07:30:29.417Z,32.83
2023-05-14T07:32:30.944Z,32.52
2023-05-14T07:34:32.513Z,32.69
2023-05-14T07:36:34.274Z,32.82
2023-05-14T07:38:35.920Z,32.58
2023-05-14T07:40:37.522Z,32.31
2023-05-14T07:42:39.148Z,32.74
2023-05-14T07:44:40.711Z,32.39
2023-05-14T07:46:42.629Z,32.45
2023-05-14T07:48:44.488Z,32.32
2023-05-14T07:50:48.131Z,32.38
2023-05-14T07:52:49.732Z,32.88
2023-05-14T07:54:51.813Z,32.44
2023-05-14T07:56:53.555Z,32.24
2023-05-14T07:58:55.333Z,32.45
2023-05-14T08:00:57.594Z,32.38
2023-05-14T08:02:59.419Z,32.39
2023-05-14T08:05:01.479Z,32.66
2023-05-14T08:07:03.137Z,32.37
2023-05-14T08:09:07.318Z,32.23
2023-05-14T08:11:09.167Z,32.61
2023-05-14T08:13:10.944Z,32.26
2023-05-14T08:15:12.618Z,32.98
2023-05-14T08:17:14.759Z,32.47
2023-05-14T08:19:16.993Z,32.28
2023-05-14T08:21:18.709Z,32.23
2023-05-14T08:23:20.508Z,32.36
2023-05-14T08:25:22.087Z,32.17
2023-05-14T08:27:23.742Z,32.67
2023-05-14T08:29:25.976Z,32.67
2023-05-14T08:31:27.659Z,32.35
2023-05-14T08:33:29.357Z,32.35
2023-05-14T08:35:31.060Z,32.21
2023-05-14T08:37:32.724Z,32.48
2023-05-14T08:39:34.285Z,32.22
2023-05-14T08:41:36.303Z,32.37
2023-05-14T08:44:04.568Z,32.66
2023-05-14T08:46:06.994Z,32.38
2023-05-14T08:48:11.059Z,32.50
2023-05-14T08:50:13.074Z,32.62
2023-05-14T08:52:14.777Z,32.56
2023-05-14T08:54:17.732Z,32.37
2023-05-14T08:56:19.636Z,32.57
2023-05-14T08:58:21.290Z,32.69
2023-05-14T09:00:23.489Z,32.18
2023-05-14T09:02:29.385Z,32.30
2023-05-14T09:04:31.469Z,32.14
2023-05-14T09:06:33.340Z,32.34
2023-05-14T09:08:36.280Z,32.48
2023-05-14T09:10:37.803Z,32.30
2023-05-14T09:12:39.373Z,32.29
2023-05-14T09:14:41.359Z,32.56
2023-05-14T09:16:47.574Z,32.56
2023-05-14T09:18:49.302Z,32.25
2023-05-14T09:20:52.122Z,32.38
2023-05-14T09:22:54.799Z,32.54
2023-05-14T09:25:07.310Z,32.18
2023-05-14T09:27:10.325Z,32.15
2023-05-14T09:29:12.120Z,32.68
2023-05-14T09:31:13.710Z,32.11
2023-05-14T09:33:29.001Z,32.15
2023-05-14T09:35:31.103Z,32.56
2023-05-14T09:37:36.420Z,32.55
2023-05-14T09:39:38.173Z,32.23
2023-05-14T09:41:39.817Z,32.33
2023-05-14T09:43:41.417Z,32.26
2023-05-14T09:45:43.128Z,32.81
2023-05-14T09:47:45.346Z,32.58
2023-05-14T09:49:48.987Z,32.56
2023-05-14T09:51:50.809Z,32.17
2023-05-14T09:53:54.213Z,32.49
2023-05-14T09:55:55.799Z,32.46
2023-05-14T09:57:57.420Z,32.22
2023-05-14T09:59:59.221Z,32.22
2023-05-14T10:02:01.000Z,32.39
2023-05-14T10:04:07.763Z,32.54
2023-05-14T10:06:10.560Z,32.12
2023-05-14T10:08:33.459Z,32.19
2023-05-14T10:10:35.402Z,32.49
2023-05-14T10:12:39.172Z,32.46
2023-05-14T10:14:44.346Z,32.40
2023-05-14T10:16:51.091Z,32.44
2023-05-14T10:18:57.630Z,32.52
2023-05-14T10:21:06.736Z,32.10
2023-05-14T10:23:08.399Z,32.44
2023-05-14T10:25:10.694Z,32.31
2023-05-14T10:27:12.491Z,32.17
2023-05-14T10:29:14.369Z,32.13
2023-05-14T10:31:16.120Z,32.33
2023-05-14T10:33:18.744Z,32.45
2023-05-14T10:35:22.854Z,32.22
2023-05-14T10:37:27.835Z,32.43
2023-05-14T10:39:56.054Z,32.39
2023-05-14T10:41:57.652Z,32.19
2023-05-14T10:43:59.549Z,32.38
2023-05-14T10:46:01.195Z,32.43
2023-05-14T10:48:02.793Z,32.39
2023-05-14T10:50:06.630Z,32.39
2023-05-14T10:52:09.396Z,32.37
2023-05-14T10:54:12.340Z,32.24
2023-05-14T10:56:14.583Z,31.98
2023-05-14T10:58:16.349Z,32.46
2023-05-14T11:00:18.237Z,32.45
2023-05-14T11:02:25.347Z,32.24
2023-05-14T11:04:28.198Z,32.42
2023-05-14T11:06:29.952Z,32.50
2023-05-14T11:08:32.623Z,32.11
2023-05-14T11:10:35.640Z,32.47
2023-05-14T11:12:39.592Z,32.35
2023-05-14T11:14:41.730Z,32.34
2023-05-14T11:16:43.657Z,32.27
2023-05-14T11:18:45.721Z,32.52
2023-05-14T11:20:47.262Z,32.30
2023-05-14T11:22:51.496Z,32.05
2023-05-14T11:24:53.461Z,32.47
2023-05-14T11:26:56.401Z,32.23
2023-05-14T11:28:58.167Z,32.41
2023-05-14T11:30:59.934Z,32.13
2023-05-14T11:33:02.300Z,32.66
2023-05-14T11:35:04.875Z,32.25
2023-05-14T11:37:10.189Z,32.16
2023-05-14T11:39:18.142Z,32.50
2023-05-14T11:41:21.615Z,32.48
2023-05-14T11:43:29.305Z,32.29
2023-05-14T11:45:32.973Z,32.59
2023-05-14T11:47:34.615Z,32.60
2023-05-14T11:49:37.806Z,32.07
2023-05-14T11:51:39.447Z,32.75
2023-05-14T11:53:41.180Z,32.35
2023-05-14T11:55:42.833Z,32.56
2023-05-14T11:57:44.634Z,32.53
2023-05-14T11:59:47.451Z,32.24
2023-05-14T12:01:50.696Z,32.37
2023-05-14T12:03:52.733Z,32.30
2023-05-14T12:05:58.929Z,32.13
2023-05-14T12:08:00.783Z,32.19
2023-05-14T12:10:03.587Z,32.23
2023-05-14T12:12:10.326Z,32.54
2023-05-14T12:14:19.539Z,32.21
2023-05-14T12:16:21.581Z,32.50
2023-05-14T12:18:27.357Z,32.55
2023-05-14T12:20:29.595Z,32.15
2023-05-14T12:22:31.493Z,32.30
2023-05-14T12:24:33.167Z,32.66
2023-05-14T12:26:34.848Z,32.68
2023-05-14T12:28:42.981Z,32.36
2023-05-14T12:30:45.835Z,32.39
2023-05-14T12:32:48.958Z,32.34
2023-05-14T12:34:50.624Z,32.13
2023-05-14T12:36:52.292Z,32.27
2023-05-14T12:39:04.040Z,32.30
2023-05-14T12:41:05.639Z,32.39
2023-05-14T12:43:07.487Z,32.60
2023-05-14T12:45:09.316Z,32.48
2023-05-14T12:47:11.118Z,32.65
2023-05-14T12:49:12.804Z,32.65
2023-05-14T12:51:14.583Z,32.82
2023-05-14T12:53:16.478Z,32.70
2023-05-14T12:55:18.098Z,32.81
2023-05-14T12:57:19.707Z,32.63
2023-05-14T12:59:21.264Z,32.42
2023-05-14T13:01:23.625Z,32.75
2023-05-14T13:03:26.473Z,32.28
2023-05-14T13:05:28.168Z,32.66
2023-05-14T13:07:30.405Z,32.70
2023-05-14T13:09:31.932Z,32.58
2023-05-14T13:11:33.546Z,32.87
2023-05-14T13:13:35.156Z,32.56
2023-05-14T13:15:36.865Z,32.68
2023-05-14T13:17:38.587Z,32.60
2023-05-14T13:19:40.230Z,32.85
2023-05-14T13:21:41.800Z,32.62
2023-05-14T13:23:43.455Z,32.54
2023-05-14T13:25:45.804Z,32.63
2023-05-14T13:27:51.064Z,32.64
2023-05-14T13:29:52.808Z,32.82
2023-05-14T13:31:54.357Z,32.54
2023-05-14T13:33:58.060Z,32.76
2023-05-14T13:35:59.681Z,32.55
2023-05-14T13:38:01.265Z,32.38
2023-05-14T13:40:04.426Z,32.38
2023-05-14T13:42:06.297Z,32.42
2023-05-14T13:44:07.939Z,32.90
2023-05-14T13:46:09.943Z,32.43
2023-05-14T13:48:11.641Z,32.88
2023-05-14T13:50:14.053Z,32.29
2023-05-14T13:52:16.252Z,32.70
2023-05-14T13:54:17.967Z,32.82
2023-05-14T13:56:20.132Z,32.53
2023-05-14T13:58:23.748Z,32.74
2023-05-14T14:00:27.139Z,32.59
2023-05-14T14:02:28.730Z,33.06
2023-05-14T14:04:30.692Z,32.79
2023-05-14T14:06:33.194Z,32.72
2023-05-14T14:08:35.123Z,32.47
2023-05-14T14:10:36.760Z,32.83
2023-05-14T14:12:38.348Z,32.52
2023-05-14T14:14:40.368Z,32.88
2023-05-14T14:16:42.129Z,32.58
2023-05-14T14:18:43.868Z,32.87
2023-05-14T14:20:45.646Z,32.52
2023-05-14T14:22:47.294Z,32.50
2023-05-14T14:24:48.813Z,32.88
2023-05-14T14:26:50.353Z,32.63
2023-05-14T14:28:51.888Z,32.66
2023-05-14T14:30:53.584Z,32.70
2023-05-14T14:32:55.335Z,32.79
2023-05-14T14:34:56.890Z,32.65
2023-05-14T14:36:58.537Z,32.77
2023-05-14T14:39:00.403Z,32.66
2023-05-14T14:41:03.183Z,32.83
2023-05-14T14:43:04.813Z,32.71
2023-05-14T14:45:07.316Z,32.52
2023-05-14T14:47:08.878Z,32.28
2023-05-14T14:49:10.632Z,32.88
2023-05-14T14:51:12.444Z,32.42
2023-05-14T14:53:13.955Z,32.45
2023-05-14T14:55:15.664Z,32.68
2023-05-14T14:57:17.325Z,32.37
2023-05-14T14:59:19.054Z,32.87
2023-05-14T15:01:21.390Z,32.39
2023-05-14T15:03:24.265Z,32.54
2023-05-14T15:05:26.254Z,32.36
2023-05-14T15:07:29.584Z,32.62
2023-05-14T15:09:31.452Z,32.42
2023-05-14T15:11:34.463Z,32.62
2023-05-14T15:13:37.188Z,32.39
2023-05-14T15:15:41.591Z,32.37
2023-05-14T15:17:43.271Z,32.81
2023-05-14T15:19:44.882Z,32.39
2023-05-14T15:21:46.504Z,32.74
2023-05-14T15:23:48.027Z,32.38
2023-05-14T15:25:49.970Z,32.60
2023-05-14T15:27:51.815Z,32.71
2023-05-14T15:29:53.601Z,32.36
2023-05-14T15:31:55.403Z,32.45
2023-05-14T15:33:56.984Z,32.87
2023-05-14T15:35:58.539Z,32.42
2023-05-14T15:38:00.075Z,32.96
2023-05-14T15:40:01.792Z,32.56
2023-05-14T15:42:04.169Z,32.78
2023-05-14T15:44:05.870Z,32.57
2023-05-14T15:46:07.507Z,32.88
2023-05-14T15:48:09.203Z,32.89
2023-05-14T15:50:11.313Z,32.54
2023-05-14T15:52:13.805Z,32.52
2023-05-14T15:54:15.461Z,32.93
2023-05-14T15:56:17.051Z,32.73
2023-05-14T15:58:18.771Z,32.35
2023-05-14T16:00:20.910Z,32.41
2023-05-14T16:02:22.616Z,32.67
2023-05-14T16:04:24.113Z,32.42
2023-05-14T16:06:28.643Z,32.58
2023-05-14T16:08:30.273Z,32.43
2023-05-14T16:10:31.896Z,32.47
2023-05-14T16:12:33.807Z,32.71
2023-05-14T16:14:35.607Z,32.66
2023-05-14T16:16:37.406Z,32.35
2023-05-14T16:18:40.185Z,32.26
2023-05-14T16:20:41.803Z,32.65
2023-05-14T16:22:43.482Z,32.10
2023-05-14T16:24:45.065Z,32.21
2023-05-14T16:26:46.678Z,32.56
2023-05-14T16:28:48.194Z,32.79
2023-05-14T16:30:49.726Z,32.52
2023-05-14T16:32:51.533Z,32.32
2023-05-14T16:34:53.299Z,32.31
2023-05-14T16:36:54.931Z,32.20
2023-05-14T16:39:06.757Z,32.52
2023-05-14T16:41:09.781Z,32.51
2023-05-14T16:43:11.597Z,32.62
2023-05-14T16:45:13.415Z,32.39
2023-05-14T16:47:14.949Z,32.52
2023-05-14T16:49:16.856Z,32.57
2023-05-14T16:51:18.527Z,32.18
2023-05-14T16:53:20.438Z,32.36
2023-05-14T16:55:22.096Z,32.52
2023-05-14T16:57:23.816Z,32.00
2023-05-14T16:59:25.644Z,32.13
2023-05-14T17:01:27.262Z,32.38
2023-05-14T17:03:28.853Z,32.40
2023-05-14T17:05:30.520Z,32.52
2023-05-14T17:07:32.112Z,32.65
2023-05-14T17:09:33.768Z,31.96
2023-05-14T17:11:35.636Z,32.44
2023-05-14T17:13:37.211Z,32.25
2023-05-14T17:15:41.707Z,32.25
2023-05-14T17:17:43.252Z,31.92
2023-05-14T17:19:48.350Z,31.87
2023-05-14T17:21:49.946Z,32.17
2023-05-14T17:23:51.559Z,32.13
2023-05-14T17:25:53.235Z,31.94
2023-05-14T17:27:54.866Z,32.18
2023-05-14T17:29:56.541Z,32.00
2023-05-14T17:32:00.560Z,32.34
2023-05-14T17:34:02.335Z,32.28
2023-05-14T17:36:04.393Z,31.92
2023-05-14T17:38:06.189Z,31.82
2023-05-14T17:40:08.988Z,32.13
2023-05-14T17:42:10.945Z,32.11
2023-05-14T17:44:13.262Z,31.71
2023-05-14T17:46:15.202Z,31.93
2023-05-14T17:48:17.244Z,31.75
2023-05-14T17:50:19.470Z,31.75
2023-05-14T17:52:21.450Z,32.02
2023-05-14T17:54:23.005Z,32.06
2023-05-14T17:56:24.613Z,31.98
2023-05-14T17:58:26.188Z,32.05
2023-05-14T18:00:27.807Z,32.21
2023-05-14T18:02:29.524Z,31.89
2023-05-14T18:04:31.200Z,32.01
2023-05-14T18:06:32.759Z,32.07
2023-05-14T18:08:34.338Z,31.68
2023-05-14T18:10:36.237Z,31.73
2023-05-14T18:12:37.904Z,32.16
2023-05-14T18:14:39.445Z,31.82
2023-05-14T18:16:41.176Z,31.97
2023-05-14T18:18:42.945Z,31.74
2023-05-14T18:20:44.551Z,31.70
2023-05-14T18:22:46.159Z,31.69
2023-05-14T18:24:47.817Z,31.77
2023-05-14T18:26:49.443Z,31.73
2023-05-14T18:28:51.469Z,32.08
2023-05-14T18:30:53.011Z,31.93
2023-05-14T18:32:54.680Z,32.07
2023-05-14T18:34:56.320Z,31.65
2023-05-14T18:36:58.426Z,31.98
2023-05-14T18:38:59.979Z,31.62
2023-05-14T18:41:01.588Z,31.80
2023-05-14T18:43:03.174Z,31.68
2023-05-14T18:45:05.053Z,32.16
2023-05-14T18:47:07.115Z,31.35
2023-05-14T18:49:08.934Z,31.63
2023-05-14T18:51:12.227Z,31.56
2023-05-14T18:53:13.845Z,30.84
2023-05-14T18:55:15.594Z,30.65
2023-05-14T18:57:17.188Z,30.98
2023-05-14T18:59:19.019Z,30.65
2023-05-14T19:01:21.350Z,30.90
2023-05-14T19:03:23.157Z,30.96
2023-05-14T19:05:25.136Z,31.02
2023-05-14T19:07:27.728Z,31.21
2023-05-14T19:09:29.582Z,31.41
2023-05-14T19:11:31.310Z,31.43
2023-05-14T19:13:33.087Z,31.33
2023-05-14T19:15:34.750Z,31.78
2023-05-14T19:17:37.506Z,31.54
2023-05-14T19:19:39.474Z,31.80
2023-05-14T19:21:41.105Z,31.35
2023-05-14T19:23:42.736Z,31.67
2023-05-14T19:25:44.782Z,31.93
2023-05-14T19:27:50.875Z,31.67
2023-05-14T19:29:52.517Z,31.58
2023-05-14T19:31:54.454Z,31.99
2023-05-14T19:33:56.150Z,31.97
2023-05-14T19:35:57.794Z,32.33
2023-05-14T19:37:59.485Z,31.93
2023-05-14T19:40:01.292Z,32.04
2023-05-14T19:42:02.848Z,31.95
2023-05-14T19:44:04.380Z,31.84
2023-05-14T19:46:06.528Z,32.30
2023-05-14T19:48:08.944Z,32.07
2023-05-14T19:50:11.178Z,32.24
2023-05-14T19:52:12.898Z,31.90
2023-05-14T19:54:14.658Z,31.88
2023-05-14T19:56:16.575Z,31.98
2023-05-14T19:58:18.266Z,31.90
2023-05-14T20:00:20.106Z,31.95
2023-05-14T20:02:22.774Z,31.88
2023-05-14T20:04:26.072Z,31.75
2023-05-14T20:06:27.810Z,31.45
2023-05-14T20:08:29.441Z,31.44
2023-05-14T20:10:31.183Z,31.75
2023-05-14T20:12:32.757Z,31.34
2023-05-14T20:14:34.350Z,31.25
2023-05-14T20:16:36.923Z,31.33
2023-05-14T20:18:38.488Z,31.69
2023-05-14T20:20:40.025Z,31.76
2023-05-14T20:22:42.807Z,31.58
2023-05-14T20:24:44.532Z,31.33
2023-05-14T20:26:46.123Z,31.89
2023-05-14T20:28:47.648Z,31.62
2023-05-14T20:30:49.205Z,31.57
2023-05-14T20:32:51.276Z,31.61
2023-05-14T20:34:53.247Z,31.83
2023-05-14T20:36:54.778Z,31.69
2023-05-14T20:38:56.581Z,31.83
2023-05-14T20:40:58.352Z,32.03
2023-05-14T20:43:00.051Z,31.81
2023-05-14T20:45:01.579Z,32.04
2023-05-14T20:47:03.277Z,32.08
2023-05-14T20:49:04.893Z,32.09
2023-05-14T20:51:06.472Z,31.83
2023-05-14T20:53:08.198Z,31.94
2023-05-14T20:55:10.011Z,32.10
2023-05-14T20:57:12.398Z,32.14
2023-05-14T20:59:14.068Z,32.21
2023-05-14T21:01:15.792Z,31.92
2023-05-14T21:03:17.892Z,32.22
2023-05-14T21:05:20.721Z,31.86
2023-05-14T21:07:22.341Z,32.38
2023-05-14T21:09:24.011Z,31.84
2023-05-14T21:11:25.624Z,31.84
2023-05-14T21:13:27.153Z,32.29
2023-05-14T21:15:30.640Z,32.21
2023-05-14T21:17:32.456Z,31.66
2023-05-14T21:19:34.064Z,31.97
2023-05-14T21:21:35.644Z,32.01
2023-05-14T21:23:39.425Z,32.00
2023-05-14T21:25:41.092Z,32.31
2023-05-14T21:27:42.620Z,32.26
2023-05-14T21:29:47.599Z,32.07
2023-05-14T21:31:49.361Z,32.38
2023-05-14T21:33:51.268Z,32.08
2023-05-14T21:35:52.923Z,32.33
2023-05-14T21:37:54.466Z,32.30
2023-05-14T21:39:56.172Z,32.39
2023-05-14T21:41:57.740Z,32.44
2023-05-14T21:43:59.349Z,32.41
2023-05-14T21:46:01.155Z,32.18
2023-05-14T21:48:02.935Z,32.40
2023-05-14T21:50:05.129Z,32.36
2023-05-14T21:52:06.708Z,32.15
2023-05-14T21:54:08.279Z,32.54
2023-05-14T21:56:09.916Z,32.45
2023-05-14T21:58:11.579Z,32.50
2023-05-14T22:00:14.040Z,32.14
2023-05-14T22:02:15.706Z,32.45
2023-05-14T22:04:17.554Z,32.34
2023-05-14T22:06:19.445Z,31.98
2023-05-14T22:08:21.479Z,32.19
2023-05-14T22:10:23.113Z,32.52
2023-05-14T22:12:24.739Z,32.28
2023-05-14T22:14:29.365Z,32.22
2023-05-14T22:16:31.150Z,32.24
2023-05-14T22:18:34.137Z,32.30
2023-05-14T22:20:35.869Z,32.04
2023-05-14T22:22:37.840Z,31.99
2023-05-14T22:24:39.405Z,32.08
2023-05-14T22:26:40.987Z,32.41
2023-05-14T22:28:43.584Z,32.21
2023-05-14T22:30:45.153Z,31.91
2023-05-14T22:32:47.379Z,32.09
2023-05-14T22:34:49.228Z,31.92
2023-05-14T22:36:51.064Z,31.93
2023-05-14T22:38:52.673Z,32.02
2023-05-14T22:40:54.317Z,32.08
2023-05-14T22:42:55.932Z,32.17
2023-05-14T22:44:57.492Z,32.21
2023-05-14T22:46:59.678Z,31.71
2023-05-14T22:49:01.308Z,31.71
2023-05-14T22:51:02.954Z,32.15
2023-05-14T22:53:04.510Z,32.18
2023-05-14T22:55:06.701Z,31.89
2023-05-14T22:57:08.263Z,31.57
2023-05-14T22:59:09.930Z,32.01
2023-05-14T23:01:11.717Z,31.95
2023-05-14T23:03:13.315Z,31.80
2023-05-14T23:05:15.032Z,31.92
2023-05-14T23:07:16.806Z,31.72
2023-05-14T23:09:19.019Z,31.40
2023-05-14T23:11:21.462Z,31.73
2023-05-14T23:13:23.271Z,31.91
2023-05-14T23:15:25.320Z,31.87
2023-05-14T23:17:27.215Z,31.90
2023-05-14T23:19:28.903Z,31.14
2023-05-14T23:21:30.534Z,31.59
2023-05-14T23:23:32.220Z,32.04
2023-05-14T23:25:33.777Z,31.82
2023-05-14T23:27:35.521Z,31.95
2023-05-14T23:29:37.070Z,31.59
2023-05-14T23:31:40.958Z,31.95
2023-05-14T23:33:44.519Z,32.00
2023-05-14T23:35:46.052Z,31.61
2023-05-14T23:37:49.521Z,32.01
2023-05-14T23:39:52.831Z,32.03
2023-05-14T23:41:54.410Z,31.54
2023-05-14T23:43:55.945Z,31.79
2023-05-14T23:45:57.822Z,31.65
2023-05-14T23:48:00.935Z,31.58
2023-05-14T23:50:03.071Z,31.80
2023-05-14T23:52:05.205Z,31.58
2023-05-14T23:54:06.767Z,31.33
2023-05-14T23:56:08.947Z,31.75
2023-05-14T23:58:10.477Z,31.46
